Pagina principale
METAR-TAF:

METAR-TAF

Aeroporti :

Piacenza, Italia

Aeroporto di Piacenza-San Damiano

latitudine: 44-55N, longitudine: 009-44E, altezza: 134 m

Osservazione

Il bollettino è stato emesso 30 minuti fa, alle 11:55 UTC
Vento 5 kt da ovest, variando fra ovest/sud-ovest e nord/nord-ovest
Temperature 12°C
Umidità 76%
Pressione 1011 hPa
Visibilità 10 km o più
nessuna nube inferiore a 1500 m e nessun cumulonembo

METAR: LIMS 191155Z 28005KT 240V330 CAVOK 12/08 Q1011 RMK SKC VIS MIN 9999 WIND THR30 27004KT BLU

Ora: 13:25 (12:25 UTC)


TAF: mancante

Osservazioni e previsioni meteorologiche di più di 4000 aeroporti (messaggi METAR e TAF).

Le stazioni disponibili sono rappresentate dai dischi gialli e rossi sulla carta.

Puntare il mouse per vedere il nome della stazione.

Clicca sopra per visualizzare le osservazioni e previsioni meteorologiche.

Per cambiare la mappa : fare clic sui pulsanti verdi con una croce nera per ingrandire, il pulsante verde con un trattino per diminuire, o sulla freccia verde per le mappe adiacenti.


METAR-TAF: